Time;durP1;ratioP1;P1;durP2;ratioP2;P2;SDS_P1;SDS_P2;PMS_P1;PMS_P2;Temp;Humidity;BMP_temperature;BMP_pressure;BME280_temperature;BME280_humidity;BME280_pressure;Samples;Min_cycle;Max_cycle;Signal;HPM_P1;HPM_P2
2023/06/04 00:00:03;;;;;;;1.97;1.80;;;11.50;99.90;;;;;;5035672;28;20211;-55
2023/06/04 00:02:32;;;;;;;3.03;1.77;;;11.50;99.90;;;;;;5040284;28;20195;-51
2023/06/04 00:04:58;;;;;;;3.50;2.13;;;11.50;99.90;;;;;;5017931;28;20216;-54
2023/06/04 00:07:25;;;;;;;3.10;2.40;;;11.40;99.90;;;;;;5038509;28;20215;-55
2023/06/04 00:09:53;;;;;;;2.40;2.20;;;11.40;99.90;;;;;;5042703;28;20192;-51
2023/06/04 00:12:24;;;;;;;3.20;2.23;;;11.40;99.90;;;;;;5034858;28;20306;-55
2023/06/04 00:14:52;;;;;;;3.07;1.73;;;11.30;99.90;;;;;;5040076;28;20213;-50
2023/06/04 00:17:18;;;;;;;2.47;1.97;;;11.30;99.90;;;;;;5041877;28;20211;-51
2023/06/04 00:19:45;;;;;;;2.13;1.77;;;11.20;99.90;;;;;;5023451;28;20207;-52
2023/06/04 00:22:12;;;;;;;2.03;1.83;;;11.20;99.90;;;;;;5029131;28;20198;-53
2023/06/04 00:24:40;;;;;;;3.73;1.67;;;11.20;99.90;;;;;;5039127;28;20878;-50
2023/06/04 00:27:08;;;;;;;2.30;2.10;;;11.20;99.90;;;;;;5037542;28;20208;-54
2023/06/04 00:29:36;;;;;;;3.67;1.70;;;11.10;99.90;;;;;;5044154;28;20919;-48
2023/06/04 00:32:04;;;;;;;3.27;2.10;;;11.00;99.90;;;;;;5043468;28;20287;-54
2023/06/04 00:34:31;;;;;;;2.87;1.80;;;10.80;99.90;;;;;;5023342;28;20219;-52
2023/06/04 00:36:58;;;;;;;2.87;2.17;;;10.70;99.90;;;;;;5033237;28;20224;-54
2023/06/04 00:39:25;;;;;;;2.57;1.73;;;10.60;99.90;;;;;;5034556;28;20187;-51
2023/06/04 00:41:52;;;;;;;3.30;2.37;;;10.50;99.90;;;;;;5042821;28;20916;-52
2023/06/04 00:44:21;;;;;;;3.13;1.87;;;10.50;99.90;;;;;;5041707;28;20207;-52
2023/06/04 00:46:50;;;;;;;2.70;1.90;;;10.50;99.90;;;;;;5042796;28;20265;-49
2023/06/04 00:49:20;;;;;;;1.90;1.70;;;10.60;99.90;;;;;;5013686;28;21795;-50
2023/06/04 00:51:46;;;;;;;2.30;2.10;;;10.60;99.90;;;;;;5038250;28;20191;-53
2023/06/04 00:54:16;;;;;;;3.03;2.03;;;10.60;99.90;;;;;;5032151;28;20563;-56
2023/06/04 00:56:44;;;;;;;2.43;2.20;;;10.40;99.90;;;;;;5043901;28;20226;-52
2023/06/04 00:59:12;;;;;;;3.83;2.00;;;10.30;99.90;;;;;;5040212;28;20184;-53
2023/06/04 01:01:46;;;;;;;2.33;1.97;;;10.30;99.90;;;;;;5044947;28;20257;-53
2023/06/04 01:04:19;;;;;;;2.20;2.00;;;10.20;99.90;;;;;;5041480;28;20203;-54
2023/06/04 01:06:51;;;;;;;2.50;2.30;;;10.10;99.90;;;;;;5017132;28;20231;-52
2023/06/04 01:09:18;;;;;;;2.63;2.20;;;10.20;99.90;;;;;;5030583;28;20787;-52
2023/06/04 01:11:46;;;;;;;2.10;1.90;;;10.10;99.90;;;;;;5044942;28;20199;-53
2023/06/04 01:14:13;;;;;;;2.30;2.10;;;10.10;99.90;;;;;;5041568;28;20195;-54
2023/06/04 01:16:45;;;;;;;2.20;2.00;;;10.00;99.90;;;;;;5044570;28;20272;-50
2023/06/04 01:19:40;;;;;;;3.20;2.20;;;10.00;99.90;;;;;;5037325;28;20541;-55
2023/06/04 01:22:20;;;;;;;2.30;2.10;;;10.00;99.90;;;;;;5000034;28;20231;-55
2023/06/04 01:24:55;;;;;;;4.73;2.80;;;10.00;99.90;;;;;;5044680;28;20203;-52
2023/06/04 01:27:23;;;;;;;2.80;2.17;;;9.90;99.90;;;;;;5040685;28;20225;-53
2023/06/04 01:29:51;;;;;;;3.37;2.17;;;9.80;99.90;;;;;;5044241;28;20333;-55
2023/06/04 01:32:18;;;;;;;2.70;2.37;;;9.60;99.90;;;;;;5037513;28;20306;-53
2023/06/04 01:34:47;;;;;;;2.17;1.97;;;9.70;99.90;;;;;;5036662;28;20195;-51
2023/06/04 01:37:16;;;;;;;2.93;2.17;;;9.70;99.90;;;;;;5017697;28;20685;-52
2023/06/04 01:39:43;;;;;;;2.40;2.17;;;9.80;99.90;;;;;;5038194;28;20187;-52
2023/06/04 01:42:10;;;;;;;3.13;2.50;;;9.80;99.90;;;;;;5039930;28;20188;-54
2023/06/04 01:44:37;;;;;;;3.70;2.63;;;9.80;99.90;;;;;;5042104;28;20199;-49
2023/06/04 01:47:04;;;;;;;2.90;2.10;;;9.80;99.90;;;;;;5037334;28;20646;-55
2023/06/04 01:49:31;;;;;;;3.50;1.93;;;9.80;99.90;;;;;;5034338;28;20207;-50
2023/06/04 01:51:59;;;;;;;2.20;2.00;;;9.80;99.90;;;;;;5038946;28;20662;-55
2023/06/04 01:54:27;;;;;;;2.37;2.17;;;9.70;99.90;;;;;;5022629;28;20285;-51
2023/06/04 01:56:54;;;;;;;2.37;2.00;;;9.60;99.90;;;;;;5039776;28;20215;-53
2023/06/04 01:59:22;;;;;;;2.97;1.93;;;9.60;99.90;;;;;;5038613;28;20886;-52
2023/06/04 02:01:49;;;;;;;2.53;2.07;;;9.60;99.90;;;;;;5035277;28;20612;-55
2023/06/04 02:04:15;;;;;;;2.50;2.10;;;9.70;99.90;;;;;;5035381;28;20203;-56
2023/06/04 02:07:06;;;;;;;2.30;1.60;;;9.70;99.90;;;;;;5029455;28;20583;-56
2023/06/04 02:09:53;;;;;;;2.57;1.77;;;9.70;99.90;;;;;;5038412;28;20609;-54
2023/06/04 02:12:20;;;;;;;2.20;1.77;;;9.70;99.90;;;;;;5038723;28;20191;-53
2023/06/04 02:14:47;;;;;;;2.40;2.20;;;9.60;99.90;;;;;;5037959;28;20196;-56
2023/06/04 02:17:16;;;;;;;2.43;2.07;;;9.60;99.90;;;;;;5031659;28;20255;-57
2023/06/04 02:19:44;;;;;;;2.13;1.80;;;9.60;99.90;;;;;;5042267;28;20206;-52
2023/06/04 02:22:13;;;;;;;2.13;1.80;;;9.60;99.90;;;;;;5040259;28;20192;-54
2023/06/04 02:24:42;;;;;;;2.77;2.20;;;9.60;99.90;;;;;;5017921;28;20215;-51
2023/06/04 02:27:30;;;;;;;2.93;1.93;;;9.60;99.90;;;;;;5032141;28;20238;-53
2023/06/04 02:29:57;;;;;;;2.20;2.00;;;9.60;99.90;;;;;;5034188;28;20215;-55
2023/06/04 02:32:25;;;;;;;3.40;1.90;;;9.60;99.90;;;;;;5037266;28;20285;-50
2023/06/04 02:34:52;;;;;;;3.53;1.90;;;9.60;99.90;;;;;;5042041;28;20199;-52
2023/06/04 02:37:20;;;;;;;1.87;1.77;;;9.50;99.90;;;;;;5038310;28;20207;-53
2023/06/04 02:39:47;;;;;;;3.07;2.30;;;9.50;99.90;;;;;;5023174;28;20217;-53
2023/06/04 02:42:14;;;;;;;2.80;2.03;;;9.40;99.90;;;;;;5028623;28;20188;-55
2023/06/04 02:44:41;;;;;;;1.83;1.70;;;9.40;99.90;;;;;;5031029;28;20199;-54
2023/06/04 02:47:08;;;;;;;1.90;1.70;;;9.40;99.90;;;;;;5038194;28;20317;-55
2023/06/04 02:49:35;;;;;;;4.40;2.10;;;9.40;99.90;;;;;;5040620;28;20219;-50
2023/06/04 02:52:02;;;;;;;2.67;2.43;;;9.40;99.90;;;;;;5040496;28;20191;-54
2023/06/04 02:54:31;;;;;;;2.57;2.27;;;9.40;99.90;;;;;;5020838;28;20218;-54
2023/06/04 02:56:58;;;;;;;2.27;2.03;;;9.30;99.90;;;;;;5021862;28;20218;-52
2023/06/04 02:59:25;;;;;;;2.80;2.27;;;9.30;99.90;;;;;;5034977;28;20860;-51
2023/06/04 03:01:52;;;;;;;2.60;2.27;;;9.30;99.90;;;;;;5034436;28;20196;-55
2023/06/04 03:04:20;;;;;;;4.40;2.20;;;9.20;99.90;;;;;;5041675;28;20203;-53
2023/06/04 03:06:47;;;;;;;2.50;1.90;;;9.20;99.90;;;;;;5040436;28;20218;-56
2023/06/04 03:09:14;;;;;;;2.63;2.30;;;9.20;99.90;;;;;;5040042;28;20276;-51
2023/06/04 03:11:42;;;;;;;2.67;2.47;;;9.10;99.90;;;;;;5006160;28;20220;-54
2023/06/04 03:14:10;;;;;;;3.63;2.53;;;9.10;99.90;;;;;;5037953;28;20183;-52
2023/06/04 03:16:39;;;;;;;2.80;1.77;;;9.10;99.90;;;;;;5042871;28;20317;-55
2023/06/04 03:19:06;;;;;;;2.13;1.97;;;9.10;99.90;;;;;;5032605;28;20268;-49
2023/06/04 03:21:33;;;;;;;3.77;2.20;;;9.10;99.90;;;;;;5039439;28;20864;-56
2023/06/04 03:24:01;;;;;;;3.23;2.17;;;9.10;99.90;;;;;;5036900;28;20198;-52
2023/06/04 03:26:28;;;;;;;3.27;2.00;;;9.10;99.90;;;;;;5013597;28;20277;-57
2023/06/04 03:28:56;;;;;;;2.23;2.03;;;9.10;99.90;;;;;;5032530;28;20211;-52
2023/06/04 03:31:23;;;;;;;3.93;2.30;;;9.10;99.90;;;;;;5041056;28;20202;-55
2023/06/04 03:33:50;;;;;;;2.93;2.23;;;9.10;99.90;;;;;;5040957;28;20190;-54
2023/06/04 03:36:18;;;;;;;6.60;2.27;;;9.00;99.90;;;;;;5046029;28;20212;-55
2023/06/04 03:38:46;;;;;;;3.43;2.47;;;9.00;99.90;;;;;;5036351;28;20194;-55
2023/06/04 03:41:13;;;;;;;2.40;1.90;;;9.00;99.90;;;;;;5040711;28;20751;-55
2023/06/04 03:43:40;;;;;;;3.70;1.90;;;9.00;99.90;;;;;;5022250;28;20210;-53
2023/06/04 03:46:12;;;;;;;3.60;2.10;;;9.00;99.90;;;;;;5033984;28;20211;-49
2023/06/04 03:48:41;;;;;;;3.23;1.90;;;9.00;99.90;;;;;;5042158;28;21046;-51
2023/06/04 03:51:08;;;;;;;3.97;1.83;;;9.00;99.90;;;;;;5041403;28;20192;-53
2023/06/04 03:53:35;;;;;;;2.20;1.93;;;9.10;99.90;;;;;;5032999;28;20255;-54
2023/06/04 03:56:02;;;;;;;3.07;1.73;;;9.10;99.90;;;;;;5044383;28;20226;-54
2023/06/04 03:58:30;;;;;;;2.97;2.33;;;9.00;99.90;;;;;;5020986;28;20211;-55
2023/06/04 04:00:58;;;;;;;2.73;2.00;;;8.90;99.90;;;;;;5036015;28;20331;-51
2023/06/04 04:03:30;;;;;;;3.83;1.90;;;8.90;99.90;;;;;;5042730;28;20286;-57
2023/06/04 04:06:00;;;;;;;2.83;1.77;;;9.00;99.90;;;;;;5034157;28;20304;-53
2023/06/04 04:08:32;;;;;;;2.20;1.80;;;9.00;99.90;;;;;;5035796;28;20198;-54
2023/06/04 04:10:59;;;;;;;2.37;1.97;;;9.10;99.90;;;;;;5039572;28;20623;-50
2023/06/04 04:13:26;;;;;;;3.07;1.90;;;9.10;99.90;;;;;;5018388;28;20228;-56
2023/06/04 04:15:54;;;;;;;3.57;1.80;;;9.10;99.90;;;;;;5037791;28;20314;-51
2023/06/04 04:18:23;;;;;;;2.20;1.92;;;9.10;99.90;;;;;;5040800;28;20436;-55
2023/06/04 04:20:51;;;;;;;1.87;1.60;;;9.30;99.90;;;;;;5035077;28;20713;-56
2023/06/04 04:23:18;;;;;;;8.43;1.93;;;9.30;99.90;;;;;;5042412;28;20192;-57
2023/06/04 04:25:48;;;;;;;2.00;1.80;;;9.20;99.90;;;;;;5042266;28;20287;-52
2023/06/04 04:28:17;;;;;;;2.33;2.10;;;9.20;99.90;;;;;;5026281;28;20207;-52
2023/06/04 04:30:44;;;;;;;1.93;1.70;;;9.30;99.90;;;;;;5038669;28;21055;-51
2023/06/04 04:33:15;;;;;;;4.27;1.90;;;9.30;99.90;;;;;;5039581;28;20195;-52
2023/06/04 04:35:45;;;;;;;3.67;1.57;;;9.40;99.90;;;;;;5034583;28;20195;-51
2023/06/04 04:38:17;;;;;;;3.37;2.10;;;9.40;99.90;;;;;;5042117;28;20195;-52
2023/06/04 04:40:52;;;;;;;3.47;2.00;;;9.50;99.90;;;;;;5039848;28;20202;-53
2023/06/04 04:43:29;;;;;;;5.17;2.17;;;9.60;99.90;;;;;;5034650;28;20264;-55
2023/06/04 04:45:56;;;;;;;3.40;1.50;;;9.60;99.90;;;;;;5040274;28;20224;-52
2023/06/04 04:48:24;;;;;;;6.43;2.43;;;9.70;99.90;;;;;;5028821;28;20602;-56
2023/06/04 04:50:51;;;;;;;4.63;2.30;;;9.80;99.90;;;;;;5034664;28;20249;-51
2023/06/04 04:53:19;;;;;;;3.17;1.80;;;9.80;99.90;;;;;;5042509;28;20654;-56
2023/06/04 04:55:46;;;;;;;4.60;2.45;;;9.90;99.90;;;;;;5041239;28;20450;-52
2023/06/04 04:58:14;;;;;;;5.57;2.60;;;10.20;99.90;;;;;;5044589;28;20604;-51
2023/06/04 05:00:50;;;;;;;3.90;2.20;;;10.20;99.90;;;;;;5012928;28;20200;-55
2023/06/04 05:03:20;;;;;;;3.00;2.07;;;10.20;99.90;;;;;;5030824;28;20191;-55
2023/06/04 05:05:55;;;;;;;7.10;2.40;;;10.30;99.90;;;;;;5025659;28;20211;-48
2023/06/04 05:08:24;;;;;;;2.70;2.43;;;10.30;99.90;;;;;;5040879;28;20179;-53
2023/06/04 05:10:51;;;;;;;7.00;2.70;;;10.30;99.90;;;;;;5042562;28;20219;-47
2023/06/04 05:13:19;;;;;;;5.03;2.50;;;10.40;99.90;;;;;;5042683;28;20198;-54
2023/06/04 05:15:52;;;;;;;3.60;2.17;;;10.50;99.90;;;;;;5014863;28;20220;-49
2023/06/04 05:18:28;;;;;;;5.22;2.70;;;10.60;99.90;;;;;;5028915;28;20448;-52
2023/06/04 05:20:59;;;;;;;3.63;2.43;;;10.90;99.90;;;;;;5034778;28;20540;-52
2023/06/04 05:23:29;;;;;;;5.63;2.80;;;10.90;99.90;;;;;;5033021;28;20203;-53
2023/06/04 05:25:56;;;;;;;6.10;2.20;;;11.00;99.90;;;;;;5035913;28;20273;-50
2023/06/04 05:28:24;;;;;;;4.90;2.20;;;11.00;99.90;;;;;;5030912;28;20192;-52
2023/06/04 05:30:58;;;;;;;4.93;2.30;;;11.10;99.90;;;;;;5027880;28;20646;-50
2023/06/04 05:33:25;;;;;;;6.28;2.75;;;11.20;99.90;;;;;;5019536;28;20432;-54
2023/06/04 05:35:58;;;;;;;5.93;2.80;;;11.50;99.90;;;;;;5043203;28;20304;-52
2023/06/04 05:38:30;;;;;;;7.17;2.30;;;11.50;99.90;;;;;;5032447;28;20196;-50
2023/06/04 05:41:15;;;;;;;2.47;2.13;;;11.50;99.90;;;;;;5042084;28;20252;-54
2023/06/04 05:43:44;;;;;;;7.23;2.50;;;11.50;99.90;;;;;;5029983;28;20261;-51
2023/06/04 05:46:13;;;;;;;5.73;2.27;;;11.60;99.90;;;;;;5030440;28;20215;-52
2023/06/04 05:48:40;;;;;;;5.40;2.17;;;11.70;99.90;;;;;;5019488;28;20233;-50
2023/06/04 05:51:08;;;;;;;5.60;2.50;;;11.70;99.90;;;;;;5038304;28;20447;-52
2023/06/04 05:53:40;;;;;;;3.23;2.00;;;12.00;99.90;;;;;;5042074;28;20199;-50
2023/06/04 05:56:08;;;;;;;5.03;2.00;;;12.00;99.90;;;;;;5037346;28;20222;-53
2023/06/04 05:58:35;;;;;;;4.20;2.17;;;12.00;99.90;;;;;;5035546;28;20465;-54
2023/06/04 06:01:03;;;;;;;4.90;1.97;;;12.30;99.90;;;;;;5041999;28;20196;-54
2023/06/04 06:03:30;;;;;;;4.07;1.97;;;12.20;99.90;;;;;;5025098;28;20338;-47
2023/06/04 06:05:59;;;;;;;4.73;2.03;;;12.20;99.90;;;;;;5033441;28;20215;-48
2023/06/04 06:08:26;;;;;;;4.27;2.10;;;12.30;99.90;;;;;;5035677;28;20207;-47
2023/06/04 06:10:55;;;;;;;4.23;2.57;;;12.30;99.90;;;;;;5030346;28;21003;-52
2023/06/04 06:13:22;;;;;;;4.73;1.87;;;12.40;99.90;;;;;;5043948;28;20215;-48
2023/06/04 06:15:49;;;;;;;4.20;2.20;;;12.40;99.90;;;;;;5028616;28;20558;-53
2023/06/04 06:18:17;;;;;;;3.07;2.00;;;12.50;99.90;;;;;;5049830;28;20640;-47
2023/06/04 06:20:43;;;;;;;7.83;2.40;;;12.60;99.90;;;;;;5020336;28;20638;-53
2023/06/04 06:23:11;;;;;;;4.87;1.73;;;12.60;99.90;;;;;;5031999;28;20202;-53
2023/06/04 06:25:45;;;;;;;3.50;1.77;;;12.80;99.90;;;;;;5032724;28;20192;-53
2023/06/04 06:28:18;;;;;;;4.73;2.17;;;12.80;99.90;;;;;;5044838;28;20194;-52
2023/06/04 06:30:47;;;;;;;5.10;1.70;;;12.90;99.90;;;;;;5032844;28;20229;-54
2023/06/04 06:33:14;;;;;;;3.33;1.40;;;12.90;99.90;;;;;;5042411;28;20203;-54
2023/06/04 06:35:41;;;;;;;2.23;1.53;;;13.00;99.90;;;;;;5022500;28;20289;-53
2023/06/04 06:38:08;;;;;;;3.33;1.77;;;13.10;99.90;;;;;;5024314;28;20202;-55
2023/06/04 06:40:35;;;;;;;3.00;1.77;;;13.10;99.90;;;;;;5036688;28;20191;-54
2023/06/04 06:43:02;;;;;;;3.80;1.50;;;13.10;99.90;;;;;;5040524;28;20183;-55
2023/06/04 06:45:31;;;;;;;5.53;1.67;;;13.20;99.90;;;;;;5036508;28;20199;-51
2023/06/04 06:47:58;;;;;;;5.03;1.77;;;;;;;;;;5037162;28;20226;-49
2023/06/04 06:50:25;;;;;;;6.67;2.07;;;13.40;99.90;;;;;;5023685;28;20242;-55
2023/06/04 06:52:52;;;;;;;6.23;2.30;;;13.40;99.90;;;;;;5029019;28;20201;-53
2023/06/04 06:55:18;;;;;;;6.40;2.00;;;13.50;99.90;;;;;;5039872;28;20251;-52
2023/06/04 06:57:45;;;;;;;4.57;2.20;;;13.60;99.90;;;;;;5039170;28;20750;-52
2023/06/04 07:00:13;;;;;;;4.37;1.43;;;13.60;99.90;;;;;;5039144;28;20188;-55
2023/06/04 07:02:41;;;;;;;3.93;1.20;;;13.70;99.90;;;;;;5029794;28;20573;-54
2023/06/04 07:05:08;;;;;;;2.10;1.60;;;13.80;99.90;;;;;;5036312;28;20195;-52
2023/06/04 07:07:35;;;;;;;2.20;1.20;;;13.80;99.90;;;;;;5015729;28;20215;-53
2023/06/04 07:10:03;;;;;;;4.63;1.43;;;13.90;99.90;;;;;;5038513;28;20273;-50
2023/06/04 07:12:30;;;;;;;4.97;1.80;;;13.90;99.90;;;;;;5046965;28;20685;-55
2023/06/04 07:14:57;;;;;;;4.03;1.60;;;14.00;99.90;;;;;;5042347;28;20184;-51
2023/06/04 07:17:26;;;;;;;3.43;1.83;;;14.10;99.90;;;;;;5040834;28;20230;-51
2023/06/04 07:19:54;;;;;;;3.90;1.33;;;14.20;99.90;;;;;;5030354;28;20211;-53
2023/06/04 07:22:20;;;;;;;2.63;1.37;;;14.30;99.90;;;;;;5023059;28;20254;-51
2023/06/04 07:24:47;;;;;;;2.77;1.30;;;14.30;99.90;;;;;;5041848;28;20574;-53
2023/06/04 07:27:14;;;;;;;1.97;1.20;;;14.40;99.90;;;;;;5046671;28;20215;-48
2023/06/04 07:29:44;;;;;;;3.03;1.77;;;14.40;99.90;;;;;;5046223;28;20230;-51
2023/06/04 07:32:11;;;;;;;5.53;1.47;;;14.50;99.90;;;;;;5036450;28;20250;-50
2023/06/04 07:34:39;;;;;;;5.53;1.47;;;14.60;99.90;;;;;;5031196;28;20709;-50
2023/06/04 07:37:09;;;;;;;1.93;1.30;;;14.70;99.90;;;;;;5045624;28;20195;-49
2023/06/04 07:39:37;;;;;;;2.80;1.20;;;14.80;99.90;;;;;;5025508;28;20210;-50
2023/06/04 07:42:05;;;;;;;3.57;1.30;;;14.90;99.90;;;;;;5039709;28;20191;-48
2023/06/04 07:44:33;;;;;;;2.33;1.30;;;15.00;99.90;;;;;;5046652;28;20192;-49
2023/06/04 07:46:59;;;;;;;3.03;1.30;;;15.10;99.90;;;;;;5037201;28;20227;-50
2023/06/04 07:49:27;;;;;;;4.00;1.10;;;15.20;99.90;;;;;;5027207;28;20207;-48
2023/06/04 07:51:53;;;;;;;2.97;1.40;;;15.20;99.90;;;;;;5044081;28;20215;-48
2023/06/04 07:54:23;;;;;;;2.50;1.07;;;15.30;99.90;;;;;;5029079;28;20655;-53
2023/06/04 07:56:55;;;;;;;3.37;1.30;;;15.30;99.90;;;;;;5038855;28;20333;-50
2023/06/04 07:59:22;;;;;;;2.93;1.23;;;15.40;99.80;;;;;;5039282;28;20219;-48
2023/06/04 08:01:51;;;;;;;5.77;1.40;;;15.40;99.90;;;;;;5034457;28;20610;-52
2023/06/04 08:04:18;;;;;;;1.90;1.07;;;15.50;99.90;;;;;;5036295;28;20207;-51
2023/06/04 08:06:46;;;;;;;3.50;1.43;;;15.70;99.30;;;;;;5037800;28;20227;-52
2023/06/04 08:09:13;;;;;;;2.43;1.10;;;15.90;98.80;;;;;;5027128;28;20212;-49
2023/06/04 08:11:42;;;;;;;2.20;1.03;;;16.00;98.10;;;;;;5037617;28;20223;-49
2023/06/04 08:14:10;;;;;;;3.40;1.20;;;16.00;97.70;;;;;;5041145;28;20187;-49
2023/06/04 08:16:37;;;;;;;3.50;0.80;;;16.10;96.60;;;;;;5026055;28;20235;-46
2023/06/04 08:19:04;;;;;;;3.03;1.50;;;16.20;95.70;;;;;;5037601;28;20207;-51
2023/06/04 08:21:31;;;;;;;3.13;1.07;;;16.30;95.20;;;;;;5035576;28;20190;-51
2023/06/04 08:23:58;;;;;;;1.57;0.90;;;16.30;95.50;;;;;;5044566;28;20219;-47
2023/06/04 08:26:26;;;;;;;1.80;1.00;;;16.40;94.90;;;;;;5017149;28;20211;-49
2023/06/04 08:28:56;;;;;;;2.10;0.97;;;16.60;94.60;;;;;;5038078;28;21739;-52
2023/06/04 08:31:23;;;;;;;3.13;1.10;;;16.60;94.70;;;;;;5038422;28;20207;-47
2023/06/04 08:33:49;;;;;;;1.10;0.80;;;16.70;94.30;;;;;;5039702;28;20196;-49
2023/06/04 08:36:39;;;;;;;1.60;1.17;;;16.80;93.80;;;;;;5037752;28;20245;-45
2023/06/04 08:39:28;;;;;;;2.20;0.93;;;16.90;93.50;;;;;;5023373;28;20218;-49
2023/06/04 08:42:00;;;;;;;1.67;0.77;;;16.90;92.80;;;;;;5031501;28;20311;-52
2023/06/04 08:44:29;;;;;;;1.97;0.90;;;17.00;91.40;;;;;;5035616;28;20183;-48
2023/06/04 08:47:03;;;;;;;1.83;0.73;;;17.10;91.00;;;;;;5043644;28;20696;-50
2023/06/04 08:49:35;;;;;;;1.60;0.83;;;;;;;;;;5034363;28;20200;-48
2023/06/04 08:52:01;;;;;;;0.90;0.60;;;17.40;87.20;;;;;;5037010;28;20211;-50
2023/06/04 08:54:30;;;;;;;0.90;0.80;;;17.50;85.40;;;;;;5022317;28;20215;-47
2023/06/04 08:56:57;;;;;;;2.97;1.10;;;17.40;83.90;;;;;;5026638;28;20211;-49
2023/06/04 08:59:24;;;;;;;2.93;0.70;;;17.40;83.40;;;;;;5037333;28;20207;-45
2023/06/04 09:01:54;;;;;;;1.53;0.80;;;17.50;83.60;;;;;;5044284;28;20736;-48
2023/06/04 09:04:22;;;;;;;0.83;0.77;;;17.70;83.40;;;;;;5033908;28;20203;-51
2023/06/04 09:06:49;;;;;;;1.27;0.70;;;17.70;82.40;;;;;;5037709;28;20223;-51
2023/06/04 09:09:19;;;;;;;2.47;1.00;;;17.90;82.80;;;;;;5038634;28;20198;-48
2023/06/04 09:11:51;;;;;;;2.47;0.97;;;17.90;81.90;;;;;;5008611;28;20234;-50
2023/06/04 09:14:18;;;;;;;2.40;1.00;;;17.90;81.80;;;;;;5034855;28;20837;-48
2023/06/04 09:16:46;;;;;;;1.13;0.93;;;18.00;82.20;;;;;;5043293;28;20215;-47
2023/06/04 09:19:15;;;;;;;3.00;0.97;;;18.00;81.20;;;;;;5041389;28;20286;-50
2023/06/04 09:21:49;;;;;;;2.40;0.80;;;18.10;80.70;;;;;;5036020;28;20669;-49
2023/06/04 09:24:17;;;;;;;4.30;0.87;;;18.20;80.10;;;;;;5026288;28;20203;-48
2023/06/04 09:26:43;;;;;;;2.70;1.27;;;18.30;78.60;;;;;;5017479;28;20362;-48
2023/06/04 09:29:10;;;;;;;1.87;0.90;;;18.30;79.20;;;;;;5041625;28;20242;-47
2023/06/04 09:31:39;;;;;;;3.13;1.10;;;18.30;79.30;;;;;;5042800;28;20709;-48
2023/06/04 09:34:07;;;;;;;1.43;1.07;;;18.40;80.80;;;;;;5041639;28;20704;-52
2023/06/04 09:36:36;;;;;;;1.17;1.07;;;18.40;83.20;;;;;;5034059;28;20273;-50
2023/06/04 09:39:04;;;;;;;2.57;1.00;;;18.40;83.90;;;;;;5021301;28;20209;-49
2023/06/04 09:41:31;;;;;;;2.63;1.13;;;18.30;83.50;;;;;;5039599;28;20270;-51
2023/06/04 09:44:03;;;;;;;0.90;0.80;;;18.40;81.00;;;;;;5024029;28;20195;-49
2023/06/04 09:46:30;;;;;;;3.00;0.80;;;18.30;81.20;;;;;;5040327;28;20209;-48
2023/06/04 09:49:02;;;;;;;1.67;0.80;;;18.50;80.40;;;;;;5045924;28;20278;-51
2023/06/04 09:51:30;;;;;;;2.23;1.00;;;18.60;82.40;;;;;;5030368;28;20338;-48
2023/06/04 09:54:00;;;;;;;3.97;0.97;;;18.60;88.00;;;;;;5035426;28;20203;-48
2023/06/04 09:56:27;;;;;;;2.83;1.07;;;18.70;93.70;;;;;;5037237;28;20598;-48
2023/06/04 09:58:56;;;;;;;0.70;0.70;;;18.80;79.40;;;;;;5018868;28;20257;-52
2023/06/04 10:01:24;;;;;;;0.93;0.90;;;18.80;99.90;;;;;;5034824;28;20191;-48
2023/06/04 10:03:52;;;;;;;1.60;1.00;;;18.80;99.90;;;;;;5045764;28;20211;-48
2023/06/04 10:06:20;;;;;;;1.87;0.70;;;18.90;99.90;;;;;;5032230;28;20278;-49
2023/06/04 10:08:49;;;;;;;1.23;1.13;;;19.00;99.90;;;;;;5034336;28;20659;-47
2023/06/04 10:11:21;;;;;;;1.33;1.00;;;18.90;99.90;;;;;;5034608;28;20219;-48
2023/06/04 10:13:53;;;;;;;2.10;0.80;;;19.00;99.90;;;;;;5024299;28;20207;-47
2023/06/04 10:16:21;;;;;;;1.87;0.93;;;18.80;99.90;;;;;;5032793;28;20804;-47
2023/06/04 10:18:49;;;;;;;2.90;1.00;;;18.80;99.90;;;;;;5037315;28;20195;-48
2023/06/04 10:21:18;;;;;;;1.30;0.83;;;19.00;99.90;;;;;;5034283;28;20188;-51
2023/06/04 10:23:46;;;;;;;1.67;0.97;;;19.00;99.90;;;;;;5037048;28;20306;-49
2023/06/04 10:26:15;;;;;;;1.37;0.80;;;19.10;99.90;;;;;;5033836;28;20709;-50
2023/06/04 10:29:07;;;;;;;1.97;0.90;;;19.10;99.90;;;;;;5012251;28;20219;-47
2023/06/04 10:31:37;;;;;;;1.83;0.80;;;;;;;;;;5037224;28;20219;-48
2023/06/04 10:34:05;;;;;;;1.27;0.83;;;;;;;;;;5039572;28;20194;-50
2023/06/04 10:36:32;;;;;;;3.33;1.30;;;;;;;;;;5037589;28;20361;-47
2023/06/04 10:39:00;;;;;;;2.50;0.87;;;;;;;;;;5036989;28;20885;-48
2023/06/04 10:41:29;;;;;;;1.93;0.93;;;;;;;;;;5045557;28;20285;-45
2023/06/04 10:44:02;;;;;;;1.77;0.90;;;;;;;;;;5012545;28;20219;-50
2023/06/04 10:46:41;;;;;;;3.17;1.00;;;;;;;;;;5033866;28;20340;-48
2023/06/04 10:49:12;;;;;;;2.07;0.93;;;;;;;;;;5033968;28;21452;-49
2023/06/04 10:51:43;;;;;;;1.67;1.33;;;;;;;;;;5042203;28;20215;-45
2023/06/04 10:54:10;;;;;;;1.87;1.17;;;;;;;;;;5031959;28;20301;-50
2023/06/04 10:56:37;;;;;;;3.37;1.40;;;;;;;;;;5039541;28;20219;-49
2023/06/04 10:59:15;;;;;;;1.17;1.00;;;;;;;;;;5029206;28;20264;-53
2023/06/04 11:01:45;;;;;;;1.07;0.70;;;20.10;90.60;;;;;;5033953;28;20862;-50
2023/06/04 11:04:22;;;;;;;5.80;1.10;;;20.10;89.50;;;;;;5041188;28;20519;-51
2023/06/04 11:07:01;;;;;;;1.40;0.73;;;19.90;91.70;;;;;;5046681;28;20217;-48
2023/06/04 11:09:29;;;;;;;1.20;0.83;;;19.90;91.90;;;;;;5042175;28;20211;-50
2023/06/04 11:11:59;;;;;;;2.07;1.13;;;19.80;92.00;;;;;;5042908;28;20207;-50
2023/06/04 11:14:27;;;;;;;1.03;0.70;;;19.90;74.40;;;;;;5032824;28;20257;-52
2023/06/04 11:16:56;;;;;;;1.03;0.90;;;19.90;68.80;;;;;;5007896;28;20596;-49
2023/06/04 11:19:23;;;;;;;2.50;1.10;;;19.80;68.10;;;;;;5036846;28;20215;-54
2023/06/04 11:21:50;;;;;;;5.90;1.50;;;19.90;67.30;;;;;;5042530;28;20677;-52
2023/06/04 11:24:17;;;;;;;2.33;0.87;;;19.90;67.50;;;;;;5033388;28;20195;-49
2023/06/04 11:26:46;;;;;;;1.23;1.00;;;20.00;67.70;;;;;;5042536;28;20215;-47
2023/06/04 11:29:15;;;;;;;3.87;1.00;;;20.10;68.20;;;;;;5024539;28;20264;-50
2023/06/04 11:31:44;;;;;;;1.30;1.00;;;20.00;88.50;;;;;;5014097;28;20223;-48
2023/06/04 11:34:23;;;;;;;2.80;0.90;;;20.10;74.20;;;;;;5039963;28;20653;-49
2023/06/04 11:36:52;;;;;;;3.00;0.90;;;20.40;91.60;;;;;;5042281;28;20211;-49
2023/06/04 11:39:19;;;;;;;2.20;0.70;;;20.00;93.00;;;;;;5039517;28;20895;-51
2023/06/04 11:41:46;;;;;;;1.30;1.20;;;20.50;93.00;;;;;;5033414;28;20230;-50
2023/06/04 11:44:14;;;;;;;1.87;0.90;;;20.20;97.00;;;;;;5024700;28;20670;-47
2023/06/04 11:46:43;;;;;;;2.30;0.80;;;20.40;67.50;;;;;;5014985;28;20275;-54
2023/06/04 11:49:15;;;;;;;1.10;0.83;;;20.30;65.30;;;;;;5037932;28;20206;-52
2023/06/04 11:51:46;;;;;;;1.20;1.10;;;20.30;65.50;;;;;;5041407;28;20214;-54
2023/06/04 11:54:15;;;;;;;2.00;1.20;;;20.30;64.10;;;;;;5037028;28;20211;-47
2023/06/04 11:56:44;;;;;;;2.27;0.70;;;20.20;68.70;;;;;;5031996;28;20313;-53
2023/06/04 11:59:29;;;;;;;2.20;0.77;;;20.30;63.90;;;;;;5045826;28;20219;-49
2023/06/04 12:01:57;;;;;;;1.07;0.80;;;20.40;64.20;;;;;;5015506;28;20210;-48
2023/06/04 12:04:31;;;;;;;2.17;0.93;;;19.00;87.60;;;;;;5048123;28;20202;-50
2023/06/04 12:07:01;;;;;;;2.17;0.90;;;20.40;65.40;;;;;;5038616;28;20290;-49
2023/06/04 12:09:32;;;;;;;1.77;0.90;;;20.60;66.20;;;;;;5033047;28;20223;-50
2023/06/04 12:11:59;;;;;;;3.13;0.90;;;20.80;65.00;;;;;;5028701;28;20243;-50
2023/06/04 12:14:26;;;;;;;1.40;1.00;;;20.90;63.70;;;;;;5044495;28;20684;-49
2023/06/04 12:16:57;;;;;;;1.57;0.93;;;;;;;;;;5035080;28;20215;-48
2023/06/04 12:19:26;;;;;;;1.00;0.90;;;;;;;;;;5019533;28;20285;-52
2023/06/04 12:22:04;;;;;;;2.23;0.90;;;;;;;;;;5033592;28;20202;-49
2023/06/04 12:24:32;;;;;;;1.93;1.10;;;;;;;;;;5030987;28;20203;-51
2023/06/04 12:27:04;;;;;;;2.07;0.70;;;21.40;61.70;;;;;;5031664;28;20219;-49
2023/06/04 12:29:31;;;;;;;1.30;0.77;;;21.40;61.70;;;;;;5045437;28;20206;-48
2023/06/04 12:32:07;;;;;;;3.33;0.80;;;21.40;62.00;;;;;;5034376;28;20289;-52
2023/06/04 12:34:34;;;;;;;1.43;0.93;;;21.60;61.90;;;;;;5022259;28;20230;-50
2023/06/04 12:37:05;;;;;;;1.57;1.13;;;21.60;62.20;;;;;;5036765;28;20257;-50
2023/06/04 12:39:36;;;;;;;1.33;0.70;;;;;;;;;;5030224;28;20298;-53
2023/06/04 12:42:04;;;;;;;1.50;0.80;;;21.10;94.40;;;;;;5036067;28;20219;-52
2023/06/04 12:44:31;;;;;;;2.87;1.20;;;21.90;89.60;;;;;;5044036;28;20278;-48
2023/06/04 12:46:58;;;;;;;1.10;1.00;;;21.60;83.20;;;;;;5041095;28;20326;-53
2023/06/04 12:49:25;;;;;;;2.87;1.00;;;21.70;84.80;;;;;;5019632;28;20203;-52
2023/06/04 12:51:53;;;;;;;2.30;1.10;;;;;;;;;;5033432;28;20797;-53
2023/06/04 12:54:21;;;;;;;1.30;0.80;;;22.50;60.00;;;;;;5029021;28;20211;-50
2023/06/04 12:56:48;;;;;;;1.07;0.97;;;22.50;60.60;;;;;;5039389;28;20227;-49
2023/06/04 12:59:15;;;;;;;22.40;2.50;;;22.60;59.30;;;;;;5038044;28;20268;-54
2023/06/04 13:01:43;;;;;;;1.33;0.80;;;22.80;59.40;;;;;;5059887;28;20283;-49
2023/06/04 13:04:13;;;;;;;1.47;0.90;;;;;;;;;;5019519;28;20756;-50
2023/06/04 13:06:40;;;;;;;1.30;0.93;;;;;;;;;;5026592;28;20219;-47